AVV weather

Avalon Airport
Melbourne, Victoria, Australia

Public forecast

Using degrees Celsius for public forecast. Weather courtesy of forecast.io.

METAR (pilot weather report)

Retrieved 2017/05/23 16:30 UTC (12 minutes ago):

YMAV 231630Z AUTO 34004KT 9999 // NCD 10/10 Q1012 RF00.0/000.0

TAF (pilot weather forecast)

Retrieved 2017/05/23 12:00 UTC (5 hours ago):

TAF YMAV 231126Z 2312/2412 34008KT 9999 FEW035 FM231500 32012KT 9999 -SHRA SCT025 BKN060 FM232000 29014KT 9999 SCT020 SCT030 FM240100 26015G25KT 9999 FEW035 FM240600 28010KT 9999 SCT035